Time;durP1;ratioP1;P1;durP2;ratioP2;P2;SDS_P1;SDS_P2;PMS_P1;PMS_P2;Temp;Humidity;BMP_temperature;BMP_pressure;BME280_temperature;BME280_humidity;BME280_pressure;Samples;Min_cycle;Max_cycle;Signal;HPM_P1;HPM_P2
2023/03/24 00:01:52;;;;;;;5.43;3.60;;;10.70;99.90;;;;;;5068541;28;20463;-64
2023/03/24 00:04:22;;;;;;;7.10;3.53;;;10.70;99.90;;;;;;5077267;28;20488;-63
2023/03/24 00:06:49;;;;;;;5.40;4.00;;;10.70;99.90;;;;;;5059801;28;20462;-64
2023/03/24 00:09:17;;;;;;;4.37;3.77;;;10.70;99.90;;;;;;5056545;28;20493;-64
2023/03/24 00:11:44;;;;;;;7.07;4.33;;;10.70;99.90;;;;;;5062533;28;20462;-64
2023/03/24 00:14:12;;;;;;;5.00;3.50;;;10.70;99.90;;;;;;5076993;28;20465;-64
2023/03/24 00:16:41;;;;;;;4.40;3.70;;;10.70;99.90;;;;;;5076865;28;20893;-63
2023/03/24 00:19:09;;;;;;;4.40;3.60;;;10.70;99.90;;;;;;5077344;28;20806;-62
2023/03/24 00:21:38;;;;;;;4.83;3.43;;;10.70;99.90;;;;;;5076031;28;20497;-64
2023/03/24 00:24:07;;;;;;;5.93;3.50;;;10.70;99.90;;;;;;5056694;28;20895;-54
2023/03/24 00:26:36;;;;;;;7.47;3.23;;;10.70;99.90;;;;;;5057018;28;20462;-64
2023/03/24 00:29:04;;;;;;;4.63;3.27;;;10.80;99.90;;;;;;5057075;28;20521;-63
2023/03/24 00:31:32;;;;;;;7.23;3.70;;;10.80;99.90;;;;;;5057035;28;20493;-59
2023/03/24 00:34:01;;;;;;;4.70;3.40;;;10.80;99.90;;;;;;5072241;28;20495;-63
2023/03/24 00:36:29;;;;;;;8.00;4.10;;;10.80;99.90;;;;;;5036905;28;20485;-62
2023/03/24 00:38:58;;;;;;;4.10;3.20;;;10.80;99.90;;;;;;5037077;28;20463;-63
2023/03/24 00:41:26;;;;;;;5.20;3.50;;;10.80;99.90;;;;;;5036859;28;20824;-61
2023/03/24 00:43:57;;;;;;;6.53;4.00;;;10.80;99.90;;;;;;5058538;28;20552;-62
2023/03/24 00:46:27;;;;;;;6.50;3.70;;;10.80;99.90;;;;;;5076726;28;20842;-63
2023/03/24 00:49:01;;;;;;;3.87;3.47;;;10.90;99.90;;;;;;5076413;28;20893;-63
2023/03/24 00:51:29;;;;;;;4.83;3.30;;;10.90;99.90;;;;;;5077464;28;20461;-63
2023/03/24 00:53:58;;;;;;;5.27;3.70;;;10.90;99.90;;;;;;5069802;28;20489;-63
2023/03/24 00:56:28;;;;;;;7.97;4.53;;;10.90;99.90;;;;;;5056786;28;20516;-64
2023/03/24 00:58:56;;;;;;;4.77;3.30;;;10.90;99.90;;;;;;5056608;28;20472;-60
2023/03/24 01:01:26;;;;;;;5.47;3.37;;;10.90;99.90;;;;;;5056897;28;20547;-63
2023/03/24 01:03:53;;;;;;;4.63;3.47;;;10.90;99.90;;;;;;5058386;28;20448;-63
2023/03/24 01:06:22;;;;;;;4.67;3.90;;;10.90;99.90;;;;;;5078660;28;20457;-64
2023/03/24 01:08:52;;;;;;;4.47;3.30;;;10.80;99.90;;;;;;5080982;28;20510;-63
2023/03/24 01:11:23;;;;;;;4.70;3.50;;;10.80;99.90;;;;;;5081019;28;20497;-63
2023/03/24 01:13:51;;;;;;;4.33;2.90;;;10.90;99.90;;;;;;5080348;28;20518;-63
2023/03/24 01:16:18;;;;;;;6.63;3.53;;;10.90;99.90;;;;;;5078718;28;20942;-64
2023/03/24 01:18:46;;;;;;;4.20;3.73;;;10.90;99.90;;;;;;5079259;28;20461;-64
2023/03/24 01:21:13;;;;;;;6.13;3.70;;;10.80;99.90;;;;;;5081556;28;20847;-62
2023/03/24 01:23:41;;;;;;;4.77;4.17;;;10.80;99.90;;;;;;5063524;28;20490;-63
2023/03/24 01:26:10;;;;;;;8.50;3.77;;;10.90;99.90;;;;;;5077229;28;20559;-63
2023/03/24 01:28:42;;;;;;;4.33;3.40;;;10.80;99.90;;;;;;5080750;28;20546;-60
2023/03/24 01:31:10;;;;;;;3.80;3.50;;;10.80;99.90;;;;;;5081756;28;20909;-63
2023/03/24 01:33:38;;;;;;;4.03;3.43;;;10.90;99.90;;;;;;5081708;28;20457;-63
2023/03/24 01:36:07;;;;;;;4.93;3.87;;;10.90;99.90;;;;;;5069328;28;20496;-63
2023/03/24 01:38:34;;;;;;;5.90;4.13;;;10.90;99.90;;;;;;5061268;28;20535;-62
2023/03/24 01:41:02;;;;;;;5.33;3.97;;;10.90;99.90;;;;;;5060410;28;20543;-61
2023/03/24 01:43:31;;;;;;;4.80;4.07;;;10.90;99.90;;;;;;5061078;28;20489;-62
2023/03/24 01:46:05;;;;;;;6.57;4.00;;;10.90;99.90;;;;;;5067431;28;20492;-63
2023/03/24 01:48:38;;;;;;;5.67;4.33;;;10.90;99.90;;;;;;5080717;28;20469;-57
2023/03/24 01:51:09;;;;;;;5.90;4.10;;;10.90;99.90;;;;;;5079198;28;20488;-63
2023/03/24 01:53:40;;;;;;;4.60;3.77;;;10.90;99.90;;;;;;5079927;28;20458;-60
2023/03/24 01:56:09;;;;;;;7.03;3.80;;;10.90;99.90;;;;;;5078067;28;20462;-63
2023/03/24 01:58:40;;;;;;;5.03;3.70;;;10.90;99.90;;;;;;5078578;28;20462;-64
2023/03/24 02:01:09;;;;;;;4.23;3.73;;;11.00;99.90;;;;;;5080181;28;20489;-63
2023/03/24 02:03:38;;;;;;;4.43;3.87;;;11.00;99.90;;;;;;5080826;28;20837;-63
2023/03/24 02:06:08;;;;;;;4.40;3.80;;;11.00;99.90;;;;;;5080154;28;20563;-63
2023/03/24 02:08:40;;;;;;;4.70;4.00;;;11.10;99.90;;;;;;5061505;28;20466;-63
2023/03/24 02:11:08;;;;;;;4.70;3.30;;;11.10;99.90;;;;;;5066054;28;20734;-62
2023/03/24 02:13:35;;;;;;;7.97;3.80;;;11.10;99.90;;;;;;5080402;28;20466;-63
2023/03/24 02:16:36;;;;;;;4.97;4.37;;;11.10;99.90;;;;;;5080596;28;20466;-64
2023/03/24 02:19:46;;;;;;;5.30;3.93;;;11.10;99.90;;;;;;5039861;28;20513;-63
2023/03/24 02:23:05;;;;;;;5.07;3.83;;;11.20;99.90;;;;;;5053985;28;20832;-62
2023/03/24 02:26:13;;;;;;;5.10;4.10;;;11.20;99.90;;;;;;4983280;28;20918;-63
2023/03/24 02:28:48;;;;;;;4.90;3.90;;;11.20;99.90;;;;;;5062582;28;20485;-62
2023/03/24 02:31:58;;;;;;;4.37;3.80;;;11.20;99.90;;;;;;5079650;28;20491;-62
2023/03/24 02:34:51;;;;;;;4.83;4.33;;;11.20;99.90;;;;;;5073914;28;20509;-62
2023/03/24 02:37:50;;;;;;;4.87;4.23;;;11.20;99.90;;;;;;5077105;28;20485;-57
2023/03/24 02:40:43;;;;;;;5.47;4.87;;;11.20;99.90;;;;;;5075584;28;20556;-59
2023/03/24 02:43:21;;;;;;;5.57;4.60;;;11.30;99.90;;;;;;5059244;28;20833;-61
2023/03/24 02:45:56;;;;;;;6.27;4.60;;;11.30;99.90;;;;;;5058324;28;20494;-58
2023/03/24 02:48:32;;;;;;;6.30;5.20;;;11.30;99.90;;;;;;5059386;28;20506;-62
2023/03/24 02:51:08;;;;;;;4.53;4.13;;;11.40;99.90;;;;;;5074941;28;20492;-60
2023/03/24 02:53:45;;;;;;;6.23;4.53;;;11.40;99.90;;;;;;5059363;28;20722;-62
2023/03/24 02:56:21;;;;;;;5.40;4.00;;;11.40;99.90;;;;;;5058403;28;20461;-63
2023/03/24 02:58:52;;;;;;;6.40;4.97;;;11.50;99.90;;;;;;5058441;28;20893;-63
2023/03/24 03:01:29;;;;;;;5.47;4.97;;;11.50;99.90;;;;;;5058438;28;20511;-63
2023/03/24 03:04:00;;;;;;;6.40;4.40;;;11.50;99.90;;;;;;5038097;28;20466;-64
2023/03/24 03:06:30;;;;;;;5.30;4.43;;;11.50;99.90;;;;;;5038453;28;20525;-63
2023/03/24 03:09:01;;;;;;;4.93;4.27;;;11.50;99.90;;;;;;5038088;28;20463;-62
2023/03/24 03:11:30;;;;;;;4.70;3.90;;;11.50;99.90;;;;;;5038706;28;20455;-61
2023/03/24 03:14:01;;;;;;;8.87;4.60;;;11.50;99.90;;;;;;5038113;28;20483;-60
2023/03/24 03:16:37;;;;;;;5.00;4.43;;;11.60;99.90;;;;;;5057350;28;20501;-61
2023/03/24 03:19:10;;;;;;;5.00;3.93;;;11.60;99.90;;;;;;5059326;28;20466;-61
2023/03/24 03:21:42;;;;;;;7.43;4.80;;;11.70;99.90;;;;;;5069025;28;20517;-63
2023/03/24 03:24:14;;;;;;;5.40;4.70;;;11.70;99.90;;;;;;5076840;28;20535;-60
2023/03/24 03:26:45;;;;;;;5.43;4.80;;;11.70;99.90;;;;;;5078918;28;20508;-59
2023/03/24 03:29:17;;;;;;;5.10;4.17;;;11.80;99.90;;;;;;5077619;28;20481;-62
2023/03/24 03:31:52;;;;;;;5.27;4.53;;;11.80;99.90;;;;;;5070828;28;20486;-62
2023/03/24 03:34:28;;;;;;;5.03;4.23;;;11.80;99.90;;;;;;5058808;28;20531;-62
2023/03/24 03:37:02;;;;;;;5.60;4.70;;;11.80;99.90;;;;;;5059085;28;20458;-62
2023/03/24 03:39:33;;;;;;;6.00;4.20;;;11.80;99.90;;;;;;5059272;28;20747;-63
2023/03/24 03:42:03;;;;;;;4.87;4.03;;;11.80;99.90;;;;;;5059118;28;20861;-62
2023/03/24 03:44:31;;;;;;;4.50;4.10;;;11.80;99.90;;;;;;5058833;28;20494;-64
2023/03/24 03:47:00;;;;;;;4.87;4.37;;;11.80;99.90;;;;;;5058602;28;20459;-63
2023/03/24 03:49:27;;;;;;;5.30;4.80;;;11.80;99.90;;;;;;5058353;28;20568;-62
2023/03/24 03:51:56;;;;;;;6.17;4.90;;;11.80;99.90;;;;;;5056893;28;20508;-57
2023/03/24 03:54:26;;;;;;;5.70;5.10;;;11.80;99.90;;;;;;5057504;28;20467;-62
2023/03/24 03:56:54;;;;;;;4.90;4.40;;;11.80;99.90;;;;;;5057559;28;20497;-60
2023/03/24 03:59:29;;;;;;;5.10;4.60;;;11.80;99.90;;;;;;5057817;28;20811;-62
2023/03/24 04:01:57;;;;;;;5.10;4.40;;;11.80;99.90;;;;;;5058305;28;20603;-62
2023/03/24 04:04:45;;;;;;;5.77;5.17;;;11.80;99.90;;;;;;5073647;28;20465;-63
2023/03/24 04:07:21;;;;;;;5.90;4.90;;;11.80;99.90;;;;;;5078437;28;20493;-64
2023/03/24 04:09:59;;;;;;;7.37;5.90;;;11.80;99.90;;;;;;5077905;28;20748;-59
2023/03/24 04:12:59;;;;;;;6.80;5.30;;;11.80;99.90;;;;;;5077845;28;20511;-63
2023/03/24 04:15:41;;;;;;;5.10;4.60;;;11.70;99.90;;;;;;5028891;28;20517;-61
2023/03/24 04:18:32;;;;;;;5.40;4.90;;;11.70;99.90;;;;;;5058480;28;20501;-64
2023/03/24 04:21:14;;;;;;;6.03;5.43;;;11.70;99.90;;;;;;5057864;28;20583;-62
2023/03/24 04:23:53;;;;;;;5.77;5.17;;;11.70;99.90;;;;;;5059948;28;20501;-63
2023/03/24 04:26:27;;;;;;;8.20;6.63;;;11.70;99.90;;;;;;5077937;28;20461;-62
2023/03/24 04:29:09;;;;;;;7.93;6.10;;;11.70;99.90;;;;;;5067695;28;20528;-63
2023/03/24 04:31:48;;;;;;;6.13;5.53;;;11.70;99.90;;;;;;5060135;28;20424;-64
2023/03/24 04:34:28;;;;;;;6.30;5.70;;;11.60;99.90;;;;;;5062102;28;20466;-63
2023/03/24 04:37:02;;;;;;;6.10;5.50;;;11.70;99.90;;;;;;5079415;28;20607;-64
2023/03/24 04:39:37;;;;;;;6.60;5.90;;;11.70;99.90;;;;;;5079253;28;20464;-63
2023/03/24 04:42:20;;;;;;;8.23;5.80;;;11.70;99.90;;;;;;5081107;28;20558;-63
2023/03/24 04:44:52;;;;;;;6.53;5.87;;;11.70;99.90;;;;;;5081822;28;20860;-64
2023/03/24 04:47:27;;;;;;;6.30;5.30;;;11.70;99.90;;;;;;5081111;28;20480;-66
2023/03/24 04:50:01;;;;;;;6.50;5.80;;;11.70;99.90;;;;;;5080743;28;20468;-67
2023/03/24 04:52:28;;;;;;;6.70;5.70;;;11.70;99.90;;;;;;5080978;28;20510;-63
2023/03/24 04:54:55;;;;;;;6.40;5.80;;;11.70;99.90;;;;;;5081329;28;20514;-63
2023/03/24 04:57:23;;;;;;;7.70;6.90;;;11.70;99.90;;;;;;5062947;28;20508;-63
2023/03/24 04:59:51;;;;;;;6.37;5.37;;;11.70;99.90;;;;;;5060820;28;20465;-62
2023/03/24 05:02:18;;;;;;;7.40;5.30;;;11.60;99.90;;;;;;5061323;28;20494;-64
2023/03/24 05:04:47;;;;;;;5.50;5.00;;;11.60;99.90;;;;;;5061113;28;20450;-62
2023/03/24 05:07:16;;;;;;;5.60;4.70;;;11.60;99.90;;;;;;5061288;28;20469;-62
2023/03/24 05:09:43;;;;;;;5.80;4.30;;;11.60;99.90;;;;;;5060370;28;20784;-62
2023/03/24 05:12:11;;;;;;;4.57;4.10;;;11.60;99.90;;;;;;5060484;28;20758;-62
2023/03/24 05:14:38;;;;;;;4.80;3.90;;;11.60;99.90;;;;;;5059965;28;20458;-61
2023/03/24 05:17:05;;;;;;;5.00;3.50;;;11.60;99.90;;;;;;5068831;28;20468;-59
2023/03/24 05:19:33;;;;;;;5.90;3.60;;;11.50;99.90;;;;;;5080457;28;20457;-54
2023/03/24 05:22:01;;;;;;;4.97;3.87;;;11.60;99.90;;;;;;5078127;28;20489;-60
2023/03/24 05:24:28;;;;;;;6.37;3.77;;;11.50;99.90;;;;;;5080072;28;20472;-58
2023/03/24 05:26:55;;;;;;;5.00;3.70;;;11.50;99.90;;;;;;5076386;28;20469;-61
2023/03/24 05:29:22;;;;;;;4.07;3.30;;;11.50;99.90;;;;;;5059849;28;20485;-59
2023/03/24 05:31:49;;;;;;;4.70;3.50;;;11.40;99.90;;;;;;5060764;28;20458;-58
2023/03/24 05:34:18;;;;;;;3.73;3.33;;;11.40;99.90;;;;;;5060330;28;20925;-59
2023/03/24 05:36:45;;;;;;;4.17;3.53;;;11.40;99.90;;;;;;5059359;28;20461;-59
2023/03/24 05:39:14;;;;;;;6.00;3.47;;;11.40;99.90;;;;;;5077194;28;20461;-58
2023/03/24 05:41:41;;;;;;;4.00;3.17;;;11.30;99.90;;;;;;5078665;28;20486;-56
2023/03/24 05:44:08;;;;;;;3.60;3.07;;;11.30;99.90;;;;;;5080073;28;20889;-60
2023/03/24 05:46:35;;;;;;;6.10;3.50;;;11.30;99.90;;;;;;5079995;28;20900;-60
2023/03/24 05:49:02;;;;;;;3.83;3.30;;;11.30;99.90;;;;;;5066891;28;20466;-54
2023/03/24 05:51:30;;;;;;;4.60;3.10;;;11.20;99.90;;;;;;5059133;28;20458;-58
2023/03/24 05:53:57;;;;;;;4.93;3.43;;;11.10;99.90;;;;;;5059094;28;20466;-59
2023/03/24 05:56:26;;;;;;;4.87;3.37;;;11.00;1.00;;;;;;5058627;28;20642;-56
2023/03/24 05:58:54;;;;;;;3.60;2.43;;;10.90;1.00;;;;;;5065164;28;20834;-60
2023/03/24 06:01:21;;;;;;;4.30;2.77;;;10.80;99.90;;;;;;5078775;28;20486;-59
2023/03/24 06:03:48;;;;;;;3.87;2.20;;;10.80;99.90;;;;;;5078894;28;20461;-59
2023/03/24 06:06:17;;;;;;;4.83;2.30;;;10.80;99.90;;;;;;5079463;28;20837;-57
2023/03/24 06:08:44;;;;;;;3.80;2.37;;;10.80;99.90;;;;;;5079120;28;20461;-59
2023/03/24 06:11:12;;;;;;;5.13;2.43;;;10.70;99.90;;;;;;5078692;28;20480;-58
2023/03/24 06:13:41;;;;;;;4.07;2.40;;;10.70;99.60;;;;;;5065519;28;20461;-57
2023/03/24 06:16:09;;;;;;;2.87;2.30;;;10.60;48.60;;;;;;5079164;28;20466;-58
2023/03/24 06:18:39;;;;;;;5.40;2.57;;;10.60;1.40;;;;;;5079152;28;20465;-59
2023/03/24 06:21:07;;;;;;;3.20;2.60;;;10.60;1.30;;;;;;5079070;28;20786;-59
2023/03/24 06:23:34;;;;;;;5.07;2.60;;;10.60;1.00;;;;;;5079143;28;20782;-58
2023/03/24 06:26:01;;;;;;;7.33;2.50;;;10.60;1.00;;;;;;5059092;28;20462;-57
2023/03/24 06:28:29;;;;;;;4.40;2.10;;;10.60;1.00;;;;;;5059298;28;20489;-59
2023/03/24 06:30:58;;;;;;;4.80;2.33;;;10.50;1.00;;;;;;5059585;28;20465;-54
2023/03/24 06:33:25;;;;;;;8.40;2.83;;;10.40;1.00;;;;;;5059394;28;20504;-59
2023/03/24 06:35:52;;;;;;;5.63;2.80;;;10.30;1.00;;;;;;5071455;28;20469;-55
2023/03/24 06:38:22;;;;;;;6.23;3.10;;;10.10;1.00;;;;;;5079376;28;20453;-61
2023/03/24 06:40:50;;;;;;;6.17;2.60;;;10.00;1.00;;;;;;5080179;28;20453;-58
2023/03/24 06:43:17;;;;;;;7.83;2.97;;;10.00;1.00;;;;;;5064769;28;20949;-61
2023/03/24 06:45:44;;;;;;;5.90;2.60;;;10.00;1.00;;;;;;5069835;28;20770;-61
2023/03/24 06:48:12;;;;;;;6.10;2.47;;;9.90;1.00;;;;;;5080077;28;20457;-58
2023/03/24 06:50:40;;;;;;;7.37;2.50;;;9.90;1.00;;;;;;5078669;28;20901;-60
2023/03/24 06:53:07;;;;;;;4.97;2.60;;;9.90;1.00;;;;;;5065135;28;20471;-61
2023/03/24 06:55:34;;;;;;;12.83;3.20;;;9.90;1.00;;;;;;5062797;28;20453;-62
2023/03/24 06:58:01;;;;;;;5.20;2.60;;;9.70;1.00;;;;;;5080277;28;20547;-62
2023/03/24 07:00:29;;;;;;;7.03;2.60;;;9.80;1.00;;;;;;5079101;28;20487;-62
2023/03/24 07:02:56;;;;;;;5.40;2.53;;;9.70;1.00;;;;;;5079422;28;20493;-62
2023/03/24 07:05:25;;;;;;;7.87;2.53;;;9.80;1.00;;;;;;5079599;28;20462;-63
2023/03/24 07:07:52;;;;;;;10.70;2.73;;;9.70;1.00;;;;;;5078702;28;20461;-63
2023/03/24 07:10:20;;;;;;;7.20;2.80;;;9.70;1.00;;;;;;5069217;28;20459;-63
2023/03/24 07:12:47;;;;;;;9.03;2.50;;;9.70;1.00;;;;;;5058378;28;20464;-63
2023/03/24 07:15:15;;;;;;;7.57;2.33;;;9.70;1.00;;;;;;5059675;28;20469;-62
2023/03/24 07:17:42;;;;;;;7.23;2.80;;;9.80;1.00;;;;;;5078572;28;20518;-63
2023/03/24 07:20:10;;;;;;;12.47;3.20;;;9.90;1.00;;;;;;5079028;28;20870;-63
2023/03/24 07:22:38;;;;;;;5.70;3.10;;;9.80;1.00;;;;;;5079077;28;20490;-63
2023/03/24 07:25:06;;;;;;;6.87;2.60;;;9.80;1.00;;;;;;5066013;28;20778;-64
2023/03/24 07:27:36;;;;;;;6.87;2.47;;;9.80;1.00;;;;;;5059095;28;20466;-64
2023/03/24 07:30:04;;;;;;;8.20;2.60;;;9.90;1.00;;;;;;5075871;28;20492;-64
2023/03/24 07:32:33;;;;;;;7.00;2.87;;;9.90;1.00;;;;;;5074639;28;20469;-64
2023/03/24 07:35:01;;;;;;;7.90;2.83;;;9.90;1.00;;;;;;5057181;28;20820;-64
2023/03/24 07:37:28;;;;;;;10.40;3.20;;;10.00;1.00;;;;;;5056228;28;20467;-65
2023/03/24 07:39:57;;;;;;;9.03;2.70;;;10.10;1.00;;;;;;5056074;28;20445;-65
2023/03/24 07:42:24;;;;;;;6.33;2.93;;;10.30;1.00;;;;;;5054716;28;20655;-65
2023/03/24 07:44:52;;;;;;;5.47;2.57;;;10.50;1.00;;;;;;5057214;28;20510;-65
2023/03/24 07:47:19;;;;;;;8.00;2.60;;;10.70;1.00;;;;;;5074937;28;20769;-65
2023/03/24 07:49:46;;;;;;;8.60;2.70;;;10.80;1.00;;;;;;5074370;28;20936;-66
2023/03/24 07:52:13;;;;;;;3.67;2.57;;;10.90;1.00;;;;;;5073985;28;20428;-64
2023/03/24 07:54:40;;;;;;;6.10;2.70;;;10.80;1.00;;;;;;5076470;28;20464;-66
2023/03/24 07:57:09;;;;;;;6.00;2.90;;;11.00;1.00;;;;;;5076078;28;20771;-65
2023/03/24 07:59:36;;;;;;;7.30;3.90;;;11.20;1.00;;;;;;5074195;28;20464;-65
2023/03/24 08:02:03;;;;;;;4.40;3.00;;;11.50;1.00;;;;;;5073635;28;20546;-65
2023/03/24 08:04:32;;;;;;;7.50;3.73;;;11.60;1.00;;;;;;5068306;28;20461;-66
2023/03/24 08:06:59;;;;;;;9.97;3.67;;;11.70;99.90;;;;;;5076008;28;20461;-64
2023/03/24 08:09:26;;;;;;;6.60;4.33;;;11.50;99.90;;;;;;5074812;28;20916;-66
2023/03/24 08:11:53;;;;;;;4.17;3.57;;;11.50;99.90;;;;;;5075463;28;20464;-64
2023/03/24 08:14:22;;;;;;;8.73;3.53;;;11.30;99.90;;;;;;5074426;28;20509;-64
2023/03/24 08:16:49;;;;;;;7.83;3.27;;;11.30;99.90;;;;;;5074304;28;20477;-64
2023/03/24 08:19:16;;;;;;;9.13;3.37;;;11.20;99.90;;;;;;5074731;28;20458;-64
2023/03/24 08:21:43;;;;;;;6.63;3.50;;;11.10;99.90;;;;;;5073665;28;20484;-64
2023/03/24 08:24:10;;;;;;;7.90;3.90;;;11.20;99.90;;;;;;5072828;28;20682;-64
2023/03/24 08:26:37;;;;;;;5.63;3.50;;;11.10;99.90;;;;;;5073620;28;20443;-64
2023/03/24 08:29:05;;;;;;;10.40;3.93;;;11.30;99.90;;;;;;5074143;28;20493;-64
2023/03/24 08:31:34;;;;;;;11.80;4.07;;;11.40;99.90;;;;;;5073637;28;20484;-64
2023/03/24 08:34:03;;;;;;;9.77;3.53;;;11.50;99.90;;;;;;5053563;28;20486;-63
2023/03/24 08:36:31;;;;;;;6.97;2.77;;;11.50;99.90;;;;;;5055133;28;20574;-63
2023/03/24 08:39:00;;;;;;;10.70;5.10;;;11.50;99.90;;;;;;5054682;28;20481;-63
2023/03/24 08:41:33;;;;;;;9.23;4.10;;;11.50;99.90;;;;;;5054752;28;20462;-63
2023/03/24 08:44:02;;;;;;;8.20;3.90;;;11.80;99.90;;;;;;5056440;28;20505;-63
2023/03/24 08:46:29;;;;;;;10.37;4.70;;;12.50;99.90;;;;;;5056466;28;20519;-62
2023/03/24 08:48:58;;;;;;;12.93;4.07;;;13.30;99.90;;;;;;5057592;28;20461;-62
2023/03/24 08:51:27;;;;;;;9.70;3.67;;;13.70;99.90;;;;;;5063566;28;20487;-63
2023/03/24 08:53:54;;;;;;;8.30;3.93;;;13.40;99.90;;;;;;5074215;28;20784;-63
2023/03/24 08:56:22;;;;;;;12.40;5.27;;;12.80;99.90;;;;;;5063343;28;20455;-63
2023/03/24 08:58:52;;;;;;;7.60;4.57;;;12.70;99.90;;;;;;5054137;28;20473;-63
2023/03/24 09:01:19;;;;;;;8.30;3.80;;;12.50;99.90;;;;;;5071536;28;20487;-64
2023/03/24 09:03:47;;;;;;;12.03;4.33;;;12.80;99.90;;;;;;5074427;28;20805;-62
2023/03/24 09:06:16;;;;;;;7.73;4.13;;;13.40;99.90;;;;;;5069061;28;20462;-62
2023/03/24 09:08:43;;;;;;;12.57;4.13;;;14.00;99.90;;;;;;5054633;28;20712;-60
2023/03/24 09:11:15;;;;;;;11.93;4.80;;;14.00;99.90;;;;;;5056021;28;20474;-61
2023/03/24 09:13:42;;;;;;;10.30;3.90;;;13.70;99.90;;;;;;5055303;28;20458;-61
2023/03/24 09:16:10;;;;;;;11.90;4.23;;;13.40;99.90;;;;;;5055438;28;20466;-61
2023/03/24 09:18:37;;;;;;;10.37;4.10;;;13.80;99.90;;;;;;5052876;28;20474;-62
2023/03/24 09:21:05;;;;;;;9.43;3.03;;;13.80;99.90;;;;;;5055411;28;20465;-59
2023/03/24 09:23:35;;;;;;;6.10;3.57;;;13.90;99.90;;;;;;5055745;28;20527;-60
2023/03/24 09:26:03;;;;;;;8.50;4.20;;;13.90;99.90;;;;;;5055626;28;20458;-62
2023/03/24 09:28:30;;;;;;;9.27;4.00;;;14.40;99.90;;;;;;5069827;28;20489;-59
2023/03/24 09:30:58;;;;;;;5.50;3.90;;;14.50;99.90;;;;;;5079432;28;20461;-59
2023/03/24 09:33:26;;;;;;;11.80;4.30;;;14.50;99.90;;;;;;5080191;28;20468;-58
2023/03/24 09:35:57;;;;;;;9.73;3.63;;;15.00;99.90;;;;;;5079592;28;20461;-61
2023/03/24 09:38:24;;;;;;;10.23;3.97;;;15.00;99.90;;;;;;5077585;28;20745;-58
2023/03/24 09:40:56;;;;;;;7.63;3.60;;;15.00;99.90;;;;;;5079902;28;20472;-62
2023/03/24 09:43:30;;;;;;;10.47;4.10;;;14.70;99.90;;;;;;5075849;28;20548;-57
2023/03/24 09:46:01;;;;;;;6.03;3.60;;;14.40;99.90;;;;;;5078182;28;20457;-62
2023/03/24 09:48:35;;;;;;;12.10;3.70;;;14.50;99.90;;;;;;5078019;28;20472;-59
2023/03/24 09:51:06;;;;;;;9.57;3.77;;;14.10;99.90;;;;;;5077546;28;20479;-60
2023/03/24 09:53:40;;;;;;;9.70;4.00;;;14.30;99.90;;;;;;5077560;28;20457;-62
2023/03/24 09:56:14;;;;;;;6.60;3.70;;;14.60;99.90;;;;;;5077248;28;20518;-59
2023/03/24 09:58:42;;;;;;;9.50;3.10;;;15.10;99.90;;;;;;5063408;28;20949;-60
2023/03/24 10:01:14;;;;;;;11.00;4.03;;;14.90;99.90;;;;;;5057339;28;20466;-62
2023/03/24 10:03:41;;;;;;;10.93;3.57;;;14.90;99.90;;;;;;5057412;28;20490;-54
2023/03/24 10:06:11;;;;;;;12.20;3.83;;;14.90;99.90;;;;;;5057320;28;20473;-61
2023/03/24 10:08:43;;;;;;;6.77;3.83;;;14.80;99.90;;;;;;5063878;28;20554;-59
2023/03/24 10:11:21;;;;;;;9.33;3.90;;;14.80;99.90;;;;;;5074248;28;20904;-61
2023/03/24 10:14:00;;;;;;;7.43;3.90;;;14.30;99.90;;;;;;5055437;28;20450;-56
2023/03/24 10:16:34;;;;;;;6.80;4.37;;;14.00;99.90;;;;;;5055213;28;20454;-60
2023/03/24 10:19:12;;;;;;;10.90;4.67;;;13.70;99.90;;;;;;5059173;28;20461;-59
2023/03/24 10:21:42;;;;;;;8.37;3.93;;;13.50;99.90;;;;;;5059374;28;20457;-55
2023/03/24 10:24:17;;;;;;;7.93;4.00;;;14.10;99.90;;;;;;5059642;28;20964;-60
2023/03/24 10:26:53;;;;;;;8.30;4.03;;;14.50;99.90;;;;;;5056729;28;20462;-56
2023/03/24 10:29:26;;;;;;;9.70;4.23;;;15.00;99.90;;;;;;5054760;28;20494;-60
2023/03/24 10:31:59;;;;;;;8.17;4.40;;;15.10;99.90;;;;;;5050362;28;20458;-58
2023/03/24 10:34:29;;;;;;;8.67;3.77;;;14.70;99.90;;;;;;5066254;28;20457;-59
2023/03/24 10:36:59;;;;;;;8.90;3.90;;;14.00;99.90;;;;;;5074616;28;20476;-56
2023/03/24 10:39:26;;;;;;;8.00;3.93;;;14.10;99.90;;;;;;5073996;28;20461;-59
2023/03/24 10:41:56;;;;;;;11.30;4.60;;;14.40;99.90;;;;;;5073516;28;20462;-58
2023/03/24 10:44:24;;;;;;;8.80;4.43;;;14.70;99.90;;;;;;5074108;28;20493;-54
2023/03/24 10:46:54;;;;;;;10.47;3.30;;;15.20;99.90;;;;;;5076697;28;20509;-60
2023/03/24 10:49:23;;;;;;;8.37;3.80;;;14.60;99.90;;;;;;5074061;28;20465;-60
2023/03/24 10:51:52;;;;;;;5.97;3.20;;;14.10;99.90;;;;;;5055332;28;20462;-59
2023/03/24 10:54:21;;;;;;;11.63;3.43;;;13.50;99.90;;;;;;5055725;28;20797;-57
2023/03/24 10:56:50;;;;;;;7.43;3.20;;;13.70;99.90;;;;;;5056908;28;20473;-59
2023/03/24 10:59:27;;;;;;;11.30;3.90;;;14.30;99.90;;;;;;5056431;28;20463;-58
2023/03/24 11:02:05;;;;;;;5.53;2.93;;;14.40;99.90;;;;;;5062339;28;20457;-60
2023/03/24 11:04:33;;;;;;;5.70;3.40;;;14.80;99.90;;;;;;5055961;28;20947;-58
2023/03/24 11:07:07;;;;;;;7.13;3.37;;;15.10;99.90;;;;;;5053656;28;20511;-59
2023/03/24 11:09:42;;;;;;;8.00;4.57;;;15.10;99.90;;;;;;5056724;28;20445;-57
2023/03/24 11:12:23;;;;;;;8.63;3.10;;;14.70;99.90;;;;;;5055479;28;20465;-61
2023/03/24 11:14:59;;;;;;;8.90;3.80;;;13.70;99.90;;;;;;5056511;28;20458;-58
2023/03/24 11:17:27;;;;;;;7.77;3.47;;;13.50;99.90;;;;;;5057899;28;20478;-57
2023/03/24 11:19:57;;;;;;;13.30;3.70;;;13.90;99.90;;;;;;5056397;28;20466;-60
2023/03/24 11:22:25;;;;;;;6.03;2.93;;;13.90;99.90;;;;;;5057261;28;20462;-59
2023/03/24 11:24:55;;;;;;;9.20;3.53;;;14.20;99.90;;;;;;5056375;28;20860;-62
2023/03/24 11:27:23;;;;;;;6.13;2.97;;;14.30;99.90;;;;;;5066935;28;20453;-59
2023/03/24 11:29:54;;;;;;;7.20;3.10;;;14.60;99.90;;;;;;5075844;28;20485;-57
2023/03/24 11:32:25;;;;;;;8.63;3.20;;;14.50;99.90;;;;;;5077216;28;20547;-60
2023/03/24 11:35:03;;;;;;;7.97;3.23;;;14.70;99.90;;;;;;5076864;28;20453;-55
2023/03/24 11:37:33;;;;;;;9.63;2.70;;;15.00;99.90;;;;;;5061458;28;20458;-57
2023/03/24 11:40:18;;;;;;;9.30;3.37;;;14.80;99.90;;;;;;5057235;28;20466;-57
2023/03/24 11:42:47;;;;;;;8.53;3.43;;;14.70;99.90;;;;;;5054889;28;20493;-59
2023/03/24 11:45:26;;;;;;;8.87;3.80;;;15.30;99.90;;;;;;5057726;28;20791;-58
2023/03/24 11:47:56;;;;;;;11.43;4.67;;;15.70;99.90;;;;;;5055027;28;20468;-58
2023/03/24 11:50:28;;;;;;;10.03;3.50;;;16.50;99.90;;;;;;5063219;28;20468;-60
2023/03/24 11:53:02;;;;;;;6.10;3.03;;;16.90;99.90;;;;;;5059863;28;20801;-62
2023/03/24 11:55:37;;;;;;;9.63;3.50;;;16.60;99.90;;;;;;5046842;28;20904;-63
2023/03/24 11:58:12;;;;;;;13.70;3.27;;;16.40;99.90;;;;;;5054865;28;20461;-58
2023/03/24 12:00:46;;;;;;;7.80;3.27;;;16.00;99.90;;;;;;5059667;28;20461;-60
2023/03/24 12:03:39;;;;;;;6.40;2.83;;;15.60;99.90;;;;;;5065316;28;20465;-62
2023/03/24 12:06:19;;;;;;;6.37;3.20;;;15.20;99.90;;;;;;5054585;28;20472;-61
2023/03/24 12:08:56;;;;;;;6.63;3.17;;;14.80;99.90;;;;;;5054311;28;20552;-61
2023/03/24 12:11:33;;;;;;;6.43;3.90;;;14.70;99.90;;;;;;5060340;28;20917;-57
2023/03/24 12:14:04;;;;;;;11.07;3.37;;;14.50;99.90;;;;;;5074602;28;20460;-60
2023/03/24 12:16:46;;;;;;;5.37;2.67;;;14.70;99.90;;;;;;5075183;28;20465;-55
2023/03/24 12:19:44;;;;;;;5.83;2.40;;;14.80;99.90;;;;;;5075185;28;20915;-59
2023/03/24 12:22:24;;;;;;;6.37;2.40;;;15.50;99.90;;;;;;5064527;28;20466;-60
2023/03/24 12:25:23;;;;;;;4.73;2.33;;;16.30;99.90;;;;;;5055778;28;20501;-62
2023/03/24 12:28:01;;;;;;;7.43;3.10;;;16.60;99.90;;;;;;5074758;28;20465;-62
2023/03/24 12:30:35;;;;;;;5.87;3.40;;;16.50;99.90;;;;;;5076651;28;20936;-58
2023/03/24 12:33:22;;;;;;;7.87;3.13;;;16.10;99.90;;;;;;5063417;28;20857;-61
2023/03/24 12:36:06;;;;;;;4.00;2.90;;;16.30;99.90;;;;;;5056352;28;20466;-61
2023/03/24 12:38:54;;;;;;;6.63;3.17;;;16.40;99.90;;;;;;5057090;28;20872;-58
2023/03/24 12:41:31;;;;;;;6.63;3.13;;;16.90;99.90;;;;;;5056909;28;20462;-56
2023/03/24 12:44:23;;;;;;;5.93;3.10;;;17.00;99.90;;;;;;5072185;28;20488;-61
2023/03/24 12:47:00;;;;;;;7.90;3.50;;;16.70;99.90;;;;;;5076829;28;20544;-62
2023/03/24 12:49:47;;;;;;;7.67;3.10;;;16.80;99.90;;;;;;5077127;28;20903;-58
2023/03/24 12:52:33;;;;;;;7.07;3.20;;;16.60;99.90;;;;;;5076676;28;20472;-62
2023/03/24 12:55:05;;;;;;;8.00;3.43;;;16.60;99.90;;;;;;5068511;28;21785;-62
2023/03/24 12:57:37;;;;;;;8.90;3.70;;;16.30;99.90;;;;;;5075182;28;20545;-61
2023/03/24 13:00:11;;;;;;;6.83;3.20;;;16.00;99.90;;;;;;5076058;28;20476;-56
2023/03/24 13:02:44;;;;;;;5.50;2.60;;;15.60;99.90;;;;;;5059694;28;20458;-58
2023/03/24 13:05:21;;;;;;;9.10;3.30;;;15.30;99.90;;;;;;5058547;28;20954;-60
2023/03/24 13:07:52;;;;;;;6.50;3.17;;;15.20;99.90;;;;;;5056732;28;20453;-62
2023/03/24 13:10:24;;;;;;;4.80;2.97;;;14.70;99.90;;;;;;5056348;28;20524;-60
2023/03/24 13:12:55;;;;;;;6.33;3.67;;;15.10;99.90;;;;;;5056277;28;20469;-61